Time;durP1;ratioP1;P1;durP2;ratioP2;P2;SDS_P1;SDS_P2;PMS_P1;PMS_P2;Temp;Humidity;BMP_temperature;BMP_pressure;BME280_temperature;BME280_humidity;BME280_pressure;Samples;Min_cycle;Max_cycle;Signal;HPM_P1;HPM_P2
2021/12/23 00:01:39;;;;;;;28.60;13.77;;;;;;;;;;5077135;28;20491;-74
2021/12/23 00:04:09;;;;;;;20.27;10.67;;;;;;;;;;5077188;28;20456;-74
2021/12/23 00:06:40;;;;;;;23.23;11.60;;;;;;;;;;5077088;28;20480;-73
2021/12/23 00:09:07;;;;;;;26.15;12.77;;;;;;;;;;5077059;28;20467;-73
2021/12/23 00:11:37;;;;;;;22.23;11.35;;;;;;;;;;5077736;28;20208;-73
2021/12/23 00:14:08;;;;;;;17.08;10.27;;;;;;;;;;5077197;28;20229;-73
2021/12/23 00:16:47;;;;;;;23.67;12.88;;;;;;;;;;5077644;28;20471;-73
2021/12/23 00:19:34;;;;;;;24.70;11.33;;;;;;;;;;5077012;28;20217;-73
2021/12/23 00:24:48;;;;;;;22.52;11.88;;;;;;;;;;5076537;28;20700;-72
2021/12/23 00:27:17;;;;;;;20.55;10.73;;;;;;;;;;5077062;28;20214;-73
2021/12/23 00:29:46;;;;;;;20.65;10.77;;;;;;;;;;5076616;28;20217;-73
2021/12/23 00:32:14;;;;;;;22.58;11.43;;;;;;;;;;5076765;28;20208;-73
2021/12/23 00:34:41;;;;;;;19.92;10.20;;;;;;;;;;5076974;28;20233;-74
2021/12/23 00:37:11;;;;;;;23.60;11.80;;;;;;;;;;5076578;28;20213;-73
2021/12/23 00:39:40;;;;;;;28.45;12.70;;;;;;;;;;5083832;28;20232;-73
2021/12/23 00:42:09;;;;;;;16.58;11.15;;;;;;;;;;5083493;28;20230;-73
2021/12/23 00:44:39;;;;;;;19.63;11.50;;;;;;;;;;5083157;28;20205;-73
2021/12/23 00:47:09;;;;;;;22.83;11.60;;;;;;;;;;5083037;28;20452;-73
2021/12/23 00:49:40;;;;;;;15.70;8.35;;;;;;;;;;5083270;28;20332;-74
2021/12/23 00:52:08;;;;;;;27.50;12.57;;;;;;;;;;5083540;28;20519;-73
2021/12/23 00:54:36;;;;;;;23.70;11.40;;;;;;;;;;5083432;28;20202;-73
2021/12/23 00:57:04;;;;;;;22.45;13.70;;;;;;;;;;5083933;28;20205;-73
2021/12/23 00:59:32;;;;;;;24.20;12.00;;;;;;;;;;5083881;28;20198;-73
2021/12/23 01:02:03;;;;;;;21.92;10.90;;;;;;;;;;5082176;28;20226;-73
2021/12/23 01:04:32;;;;;;;19.93;11.57;;;;;;;;;;5084093;28;20295;-73
2021/12/23 01:07:03;;;;;;;25.27;10.20;;;;;;;;;;5083961;28;20452;-73
2021/12/23 01:09:30;;;;;;;18.38;9.80;;;;;;;;;;5083561;28;20584;-74
2021/12/23 01:11:59;;;;;;;24.25;11.30;;;;;;;;;;5083514;28;20260;-73
2021/12/23 01:14:40;;;;;;;17.58;8.50;;;;;;;;;;5084309;28;20494;-73
2021/12/23 01:17:31;;;;;;;28.30;12.05;;;;;;;;;;5083807;28;20214;-73
2021/12/23 01:20:01;;;;;;;28.33;13.50;;;;;;;;;;5085292;28;20237;-74
2021/12/23 01:22:29;;;;;;;18.35;11.27;;;;;;;;;;5084843;28;20233;-73
2021/12/23 01:24:57;;;;;;;19.75;12.05;;;;;;;;;;5085809;28;20297;-73
2021/12/23 01:27:24;;;;;;;19.48;9.60;;;;;;;;;;5085690;28;20198;-73
2021/12/23 01:29:52;;;;;;;13.65;8.73;;;;;;;;;;5085689;28;20213;-74
2021/12/23 01:32:22;;;;;;;31.50;13.85;;;;;;;;;;5085484;28;20309;-74
2021/12/23 01:34:50;;;;;;;20.40;11.90;;;;;;;;;;5084521;28;20202;-73
2021/12/23 01:37:19;;;;;;;23.75;11.40;;;;;;;;;;5084352;28;20452;-73
2021/12/23 01:39:49;;;;;;;25.50;11.37;;;;;;;;;;5083721;28;20739;-74
2021/12/23 01:42:18;;;;;;;20.47;12.53;;;;;;;;;;5083353;28;20562;-73
2021/12/23 01:44:48;;;;;;;18.95;10.35;;;;;;;;;;5083606;28;20506;-72
2021/12/23 01:47:16;;;;;;;19.50;10.90;;;;;;;;;;5083503;28;20206;-73
2021/12/23 01:49:44;;;;;;;28.88;12.98;;;;;;;;;;5081431;28;20456;-73
2021/12/23 01:52:11;;;;;;;22.15;11.30;;;;;;;;;;5079819;28;20214;-73
2021/12/23 01:54:41;;;;;;;22.80;12.20;;;;;;;;;;5080465;28;20214;-73
2021/12/23 01:57:09;;;;;;;21.13;9.23;;;;;;;;;;5079668;28;20459;-73
2021/12/23 01:59:36;;;;;;;23.90;11.23;;;;;;;;;;5079567;28;20210;-72
2021/12/23 02:02:04;;;;;;;20.50;11.40;;;;;;;;;;5079632;28;20226;-73
2021/12/23 02:04:32;;;;;;;18.97;11.30;;;;;;;;;;5079724;28;20456;-73
2021/12/23 02:07:06;;;;;;;28.95;11.98;;;;;;;;;;5079678;28;20452;-74
2021/12/23 02:09:33;;;;;;;20.27;11.57;;;;;;;;;;5079513;28;20225;-74
2021/12/23 02:12:05;;;;;;;31.73;13.17;;;;;;;;;;5079098;28;20522;-73
2021/12/23 02:14:34;;;;;;;22.92;10.07;;;;;;;;;;5079457;28;20468;-73
2021/12/23 02:17:02;;;;;;;27.40;17.08;;;;;;;;;;5078989;28;20202;-73
2021/12/23 02:19:29;;;;;;;14.52;8.35;;;;;;;;;;5079200;28;20246;-73
2021/12/23 02:21:58;;;;;;;20.85;12.07;;;;;;;;;;5078963;28;20230;-74
2021/12/23 02:24:26;;;;;;;16.63;10.70;;;;;;;;;;5078958;28;20284;-73
2021/12/23 02:26:54;;;;;;;21.77;10.95;;;;;;;;;;5079048;28;20198;-73
2021/12/23 02:29:22;;;;;;;21.25;11.73;;;;;;;;;;5078809;28;20218;-73
2021/12/23 02:31:49;;;;;;;22.60;14.23;;;;;;;;;;5078926;28;20587;-73
2021/12/23 02:34:17;;;;;;;23.48;11.75;;;;;;;;;;5079035;28;20523;-73
2021/12/23 02:36:49;;;;;;;20.67;12.13;;;;;;;;;;5078794;28;20628;-73
2021/12/23 02:39:18;;;;;;;22.27;11.02;;;;;;;;;;5078845;28;20206;-73
2021/12/23 02:41:47;;;;;;;22.63;11.90;;;;;;;;;;5078832;28;20230;-73
2021/12/23 02:44:14;;;;;;;21.13;11.70;;;;;;;;;;5078525;28;20230;-73
2021/12/23 02:46:42;;;;;;;23.10;10.77;;;;;;;;;;5078555;28;20448;-73
2021/12/23 02:49:09;;;;;;;22.00;12.52;;;;;;;;;;5078596;28;20211;-73
2021/12/23 02:51:37;;;;;;;26.33;13.02;;;;;;;;;;5078561;28;20268;-73
2021/12/23 02:54:05;;;;;;;21.70;13.40;;;;;;;;;;5078889;28;20268;-73
2021/12/23 02:56:34;;;;;;;19.95;12.27;;;;;;;;;;5078592;28;20210;-73
2021/12/23 02:59:02;;;;;;;15.52;10.68;;;;;;;;;;5078023;28;20535;-73
2021/12/23 03:01:30;;;;;;;16.08;7.70;;;;;;;;;;5076902;28;20214;-73
2021/12/23 03:03:59;;;;;;;18.83;13.00;;;;;;;;;;5078613;28;20275;-73
2021/12/23 03:06:27;;;;;;;22.27;11.40;;;;;;;;;;5077519;28;20229;-73
2021/12/23 03:08:56;;;;;;;17.63;12.57;;;;;;;;;;5078133;28;20214;-73
2021/12/23 03:11:25;;;;;;;21.13;12.73;;;;;;;;;;5078073;28;20224;-73
2021/12/23 03:13:57;;;;;;;22.80;12.57;;;;;;;;;;5078309;28;20206;-73
2021/12/23 03:16:26;;;;;;;14.40;8.27;;;;;;;;;;5078166;28;20453;-73
2021/12/23 03:18:53;;;;;;;12.80;7.20;;;;;;;;;;5078231;28;20594;-73
2021/12/23 03:21:21;;;;;;;21.53;14.27;;;;;;;;;;5077675;28;20460;-73
2021/12/23 03:23:49;;;;;;;20.23;10.83;;;;;;;;;;5077834;28;20903;-74
2021/12/23 03:26:16;;;;;;;18.30;11.63;;;;;;;;;;5078819;28;20448;-73
2021/12/23 03:28:44;;;;;;;23.27;13.77;;;;;;;;;;5078266;28;20522;-74
2021/12/23 03:31:13;;;;;;;22.50;11.90;;;;;;;;;;5079315;28;20340;-73
2021/12/23 03:33:40;;;;;;;18.23;11.90;;;;;;;;;;5078010;28;20471;-73
2021/12/23 03:36:08;;;;;;;19.20;12.53;;;;;;;;;;5077711;28;20214;-73
2021/12/23 03:38:39;;;;;;;24.80;16.73;;;;;;;;;;5077765;28;20460;-73
2021/12/23 03:41:07;;;;;;;19.00;14.33;;;;;;;;;;5077245;28;20453;-73
2021/12/23 03:43:34;;;;;;;18.63;11.70;;;;;;;;;;5078043;28;20852;-73
2021/12/23 03:46:02;;;;;;;17.40;10.10;;;;;;;;;;5078198;28;20449;-73
2021/12/23 03:48:31;;;;;;;21.93;12.00;;;;;;;;;;5077655;28;20570;-73
2021/12/23 03:50:59;;;;;;;18.73;12.70;;;;;;;;;;5077489;28;20571;-73
2021/12/23 03:53:27;;;;;;;19.10;13.10;;;;;;;;;;5077815;28;20212;-73
2021/12/23 03:55:54;;;;;;;23.42;14.07;;;;;;;;;;5077861;28;20210;-73
2021/12/23 03:58:22;;;;;;;16.70;10.87;;;;;;;;;;5076952;28;20556;-73
2021/12/23 04:00:51;;;;;;;16.93;10.93;;;;;;;;;;5077454;28;20475;-73
2021/12/23 04:03:18;;;;;;;14.25;7.57;;;;;;;;;;5077584;28;20481;-73
2021/12/23 04:05:47;;;;;;;19.48;13.30;;;;;;;;;;5077736;28;20213;-73
2021/12/23 04:08:15;;;;;;;16.33;12.13;;;;;;;;;;5077013;28;20481;-73
2021/12/23 04:10:43;;;;;;;21.73;12.10;;;;;;;;;;5076704;28;20518;-73
2021/12/23 04:13:10;;;;;;;17.33;11.17;;;;;;;;;;5077364;28;20449;-73
2021/12/23 04:15:38;;;;;;;24.98;11.90;;;;;;;;;;5077425;28;20469;-73
2021/12/23 04:18:06;;;;;;;17.70;11.35;;;;;;;;;;5076929;28;20214;-73
2021/12/23 04:20:45;;;;;;;19.25;9.15;;;;;;;;;;5077586;28;20511;-73
2021/12/23 04:23:14;;;;;;;17.27;12.30;;;;;;;;;;5077112;28;20468;-73
2021/12/23 04:25:41;;;;;;;16.58;9.60;;;;;;;;;;5076740;28;20490;-73
2021/12/23 04:28:12;;;;;;;21.10;11.70;;;;;;;;;;5077034;28;20206;-73
2021/12/23 04:30:39;;;;;;;23.38;11.95;;;;;;;;;;5076785;28;20946;-73
2021/12/23 04:33:07;;;;;;;19.88;12.77;;;;;;;;;;5076641;28;20270;-73
2021/12/23 04:35:35;;;;;;;13.90;8.90;;;;;;;;;;5077496;28;20276;-73
2021/12/23 04:38:02;;;;;;;20.77;11.50;;;;;;;;;;5077338;28;20549;-73
2021/12/23 04:40:34;;;;;;;16.50;9.32;;;;;;;;;;5077014;28;21006;-73
2021/12/23 04:43:02;;;;;;;26.58;12.30;;;;;;;;;;5076876;28;20265;-73
2021/12/23 04:45:30;;;;;;;17.53;10.93;;;;;;;;;;5076880;28;20241;-73
2021/12/23 04:47:57;;;;;;;21.93;9.40;;;;;;;;;;5076732;28;20448;-73
2021/12/23 04:50:25;;;;;;;17.87;9.80;;;;;;;;;;5076583;28;20728;-73
2021/12/23 04:52:53;;;;;;;17.00;10.30;;;;;;;;;;5076567;28;20457;-73
2021/12/23 04:55:21;;;;;;;18.80;10.00;;;;;;;;;;5076843;28;20465;-73
2021/12/23 04:57:50;;;;;;;21.70;12.97;;;;;;;;;;5076769;28;20761;-73
2021/12/23 05:00:19;;;;;;;20.73;10.80;;;;;;;;;;5076352;28;20449;-73
2021/12/23 05:02:47;;;;;;;22.27;11.00;;;;;;;;;;5076734;28;20230;-73
2021/12/23 05:05:15;;;;;;;15.98;9.15;;;;;;;;;;5076853;28;20748;-73
2021/12/23 05:07:42;;;;;;;18.33;12.32;;;;;;;;;;5076389;28;20228;-73
2021/12/23 05:10:11;;;;;;;27.90;11.40;;;;;;;;;;5076072;28;20241;-73
2021/12/23 05:12:43;;;;;;;20.80;10.35;;;;;;;;;;5076528;28;20444;-73
2021/12/23 05:15:13;;;;;;;19.70;10.97;;;;;;;;;;5076070;28;20206;-73
2021/12/23 05:17:41;;;;;;;23.02;13.68;;;;;;;;;;5076600;28;20566;-73
2021/12/23 05:20:11;;;;;;;18.03;11.80;;;;;;;;;;5076479;28;20465;-72
2021/12/23 05:22:39;;;;;;;16.30;10.57;;;;;;;;;;5075763;28;20570;-74
2021/12/23 05:25:10;;;;;;;12.20;9.40;;;;;;;;;;5077355;28;20470;-74
2021/12/23 05:27:38;;;;;;;19.30;11.55;;;;;;;;;;5079974;28;20245;-73
2021/12/23 05:30:08;;;;;;;27.13;12.33;;;;;;;;;;5079898;28;20197;-73
2021/12/23 05:32:37;;;;;;;20.08;11.32;;;;;;;;;;5080395;28;20448;-73
2021/12/23 05:35:08;;;;;;;19.00;11.60;;;;;;;;;;5079887;28;20225;-73
2021/12/23 05:37:35;;;;;;;22.17;12.17;;;;;;;;;;5079036;28;20448;-73
2021/12/23 05:40:03;;;;;;;17.65;9.60;;;;;;;;;;5079835;28;20822;-73
2021/12/23 05:42:31;;;;;;;22.58;13.07;;;;;;;;;;5080933;28;20760;-74
2021/12/23 05:44:58;;;;;;;22.30;10.60;;;;;;;;;;5080496;28;20240;-73
2021/12/23 05:47:26;;;;;;;16.27;9.75;;;;;;;;;;5079881;28;20486;-73
2021/12/23 05:49:55;;;;;;;19.17;11.03;;;;;;;;;;5078661;28;20202;-73
2021/12/23 05:52:23;;;;;;;16.40;9.53;;;;;;;;;;5079678;28;20463;-73
2021/12/23 05:54:50;;;;;;;19.02;9.90;;;;;;;;;;5079407;28;20518;-73
2021/12/23 05:57:18;;;;;;;23.07;11.83;;;;;;;;;;5079231;28;20206;-73
2021/12/23 05:59:46;;;;;;;18.50;9.03;;;;;;;;;;5079236;28;20986;-73
2021/12/23 06:02:14;;;;;;;17.60;10.70;;;;;;;;;;5079087;28;20551;-72
2021/12/23 06:04:41;;;;;;;17.43;10.07;;;;;;;;;;5078729;28;20448;-72
2021/12/23 06:07:10;;;;;;;24.63;10.30;;;;;;;;;;5079280;28;20841;-72
2021/12/23 06:09:38;;;;;;;17.50;9.40;;;;;;;;;;5078638;28;20296;-72
2021/12/23 06:12:06;;;;;;;19.88;10.20;;;;;;;;;;5078167;28;20479;-73
2021/12/23 06:14:33;;;;;;;14.35;6.65;;;;;;;;;;5078769;28;20268;-74
2021/12/23 06:17:02;;;;;;;10.30;7.40;;;;;;;;;;5078312;28;20221;-73
2021/12/23 06:19:30;;;;;;;19.50;11.48;;;;;;;;;;5079078;28;20479;-73
2021/12/23 06:21:57;;;;;;;21.53;10.50;;;;;;;;;;5078830;28;20240;-73
2021/12/23 06:24:27;;;;;;;16.77;10.52;;;;;;;;;;5078573;28;20488;-73
2021/12/23 06:26:54;;;;;;;17.33;10.20;;;;;;;;;;5078422;28;20211;-73
2021/12/23 06:29:22;;;;;;;15.43;9.65;;;;;;;;;;5078720;28;20594;-73
2021/12/23 06:31:49;;;;;;;12.65;8.75;;;;;;;;;;5078178;28;20268;-73
2021/12/23 06:34:17;;;;;;;16.85;10.00;;;;;;;;;;5078674;28;20202;-73
2021/12/23 06:36:46;;;;;;;14.93;8.80;;;;;;;;;;5078187;28;20203;-73
2021/12/23 06:39:14;;;;;;;9.53;7.60;;;;;;;;;;5078627;28;20507;-73
2021/12/23 06:41:44;;;;;;;15.00;9.80;;;;;;;;;;5078267;28;20464;-73
2021/12/23 06:44:12;;;;;;;15.55;9.80;;;;;;;;;;5078787;28;21077;-73
2021/12/23 06:46:40;;;;;;;19.20;10.70;;;;;;;;;;5078220;28;20214;-73
2021/12/23 06:49:07;;;;;;;23.67;12.90;;;;;;;;;;5078159;28;20445;-73
2021/12/23 06:51:35;;;;;;;24.23;12.53;;;;;;;;;;5077393;28;20642;-73
2021/12/23 06:54:03;;;;;;;20.77;12.73;;;;;;;;;;5078054;28;20448;-73
2021/12/23 06:56:31;;;;;;;17.83;9.70;;;;;;;;;;5078875;28;20303;-73
2021/12/23 06:59:00;;;;;;;17.85;11.55;;;;;;;;;;5078350;28;20451;-73
2021/12/23 07:01:28;;;;;;;17.93;11.40;;;;;;;;;;5076967;28;20206;-73
2021/12/23 07:04:06;;;;;;;17.25;9.55;;;;;;;;;;5076711;28;20558;-73
2021/12/23 07:06:35;;;;;;;19.83;9.60;;;;;;;;;;5077772;28;20210;-73
2021/12/23 07:09:05;;;;;;;24.93;10.47;;;;;;;;;;5078016;28;20459;-73
2021/12/23 07:11:34;;;;;;;14.50;8.60;;;;;;;;;;5071695;28;20460;-73
2021/12/23 07:14:04;;;;;;;18.48;10.90;;;;;;;;;;5068769;28;20195;-74
2021/12/23 07:16:33;;;;;;;18.70;10.17;;;;;;;;;;5068454;28;20198;-73
2021/12/23 07:19:01;;;;;;;17.58;10.45;;;;;;;;;;5075650;28;20692;-72
2021/12/23 07:21:28;;;;;;;18.52;9.48;;;;;;;;;;5060535;28;20479;-72
2021/12/23 07:23:56;;;;;;;16.07;10.67;;;;;;;;;;5060650;28;20301;-72
2021/12/23 07:26:24;;;;;;;17.43;10.90;;;;;;;;;;5063351;28;20459;-72
2021/12/23 07:28:51;;;;;;;23.27;13.97;;;;;;;;;;5058914;28;20860;-72
2021/12/23 07:31:20;;;;;;;19.10;9.20;;;;;;;;;;5066085;28;20530;-71
2021/12/23 07:33:48;;;;;;;15.47;10.10;;;;;;;;;;5074340;28;20449;-71
2021/12/23 07:36:17;;;;;;;14.88;9.18;;;;;;;;;;5076985;28;20464;-72
2021/12/23 07:38:46;;;;;;;20.70;12.93;;;;;;;;;;5072134;28;20258;-71
2021/12/23 07:41:13;;;;;;;17.33;10.50;;;;;;;;;;5057091;28;20460;-72
2021/12/23 07:43:56;;;;;;;29.05;12.88;;;;;;;;;;5073460;28;20229;-72
2021/12/23 07:46:26;;;;;;;16.27;9.47;;;;;;;;;;5076675;28;20202;-73
2021/12/23 07:49:31;;;;;;;17.97;12.00;;;;;;;;;;5076276;28;20456;-72
2021/12/23 07:51:59;;;;;;;21.07;11.77;;;;;;;;;;5076279;28;20460;-72
2021/12/23 07:54:27;;;;;;;16.27;11.57;;;;;;;;;;5076316;28;20962;-72
2021/12/23 07:56:54;;;;;;;19.17;10.50;;;;;;;;;;5076538;28;20480;-72
2021/12/23 07:59:22;;;;;;;19.37;11.63;;;;;;;;;;5076059;28;20710;-73
2021/12/23 08:01:51;;;;;;;25.57;15.73;;;;;;;;;;5076232;28;20452;-73
2021/12/23 08:04:19;;;;;;;16.27;10.80;;;;;;;;;;5076951;28;20575;-72
2021/12/23 08:06:52;;;;;;;23.73;11.60;;;;;;;;;;5077352;28;20468;-73
2021/12/23 08:09:19;;;;;;;22.53;13.70;;;;;;;;;;5070096;28;20469;-72
2021/12/23 08:11:47;;;;;;;18.73;9.87;;;;;;;;;;5047956;28;20461;-72
2021/12/23 08:14:14;;;;;;;16.80;9.10;;;;;;;;;;5056094;28;20449;-73
2021/12/23 08:16:42;;;;;;;13.73;11.23;;;;;;;;;;5056627;28;20598;-73
2021/12/23 08:19:11;;;;;;;13.50;9.97;;;;;;;;;;5062772;28;20512;-73
2021/12/23 08:21:43;;;;;;;17.65;9.43;;;;;;;;;;5076854;28;20499;-73
2021/12/23 08:24:10;;;;;;;17.37;10.47;;;;;;;;;;5075787;28;20232;-73
2021/12/23 08:26:50;;;;;;;21.60;12.07;;;;;;;;;;5076443;28;20495;-72
2021/12/23 08:29:20;;;;;;;23.07;12.87;;;;;;;;;;5076102;28;20490;-73
2021/12/23 08:31:52;;;;;;;16.30;10.73;;;;;;;;;;5074889;28;20460;-73
2021/12/23 08:34:22;;;;;;;27.03;15.67;;;;;;;;;;5075929;28;20446;-73
2021/12/23 08:36:49;;;;;;;22.17;13.73;;;;;;;;;;5068869;28;20453;-73
2021/12/23 08:39:17;;;;;;;24.63;13.87;;;;;;;;;;5070910;28;20454;-72
2021/12/23 08:41:48;;;;;;;24.90;17.77;;;;;;;;;;5066735;28;20468;-74
2021/12/23 08:44:19;;;;;;;31.77;20.23;;;;;;;;;;5067736;28;20482;-73
2021/12/23 08:46:49;;;;;;;26.40;15.57;;;;;;;;;;5061496;28;20478;-72
2021/12/23 08:49:28;;;;;;;32.23;20.30;;;;;;;;;;5064462;28;20943;-73
2021/12/23 08:51:57;;;;;;;27.87;17.20;;;;;;;;;;5073786;28;20895;-74
2021/12/23 08:54:24;;;;;;;26.17;14.40;;;;;;;;;;5075716;28;20458;-74
2021/12/23 08:56:52;;;;;;;18.17;11.17;;;;;;;;;;5071096;28;20458;-73
2021/12/23 08:59:20;;;;;;;18.77;11.20;;;;;;;;;;5072207;28;20551;-73
2021/12/23 09:01:50;;;;;;;21.20;13.50;;;;;;;;;;5071508;28;20457;-74
2021/12/23 09:04:18;;;;;;;20.83;12.43;;;;;;;;;;5059534;28;20496;-74
2021/12/23 09:06:47;;;;;;;17.77;10.93;;;;;;;;;;5058836;28;20495;-74
2021/12/23 09:09:15;;;;;;;20.07;12.90;;;;;;;;;;5073409;28;20483;-73
2021/12/23 09:11:42;;;;;;;25.83;14.60;;;;;;;;;;5075758;28;20440;-73
2021/12/23 09:14:14;;;;;;;19.20;11.83;;;;;;;;;;5075126;28;20783;-73
2021/12/23 09:16:46;;;;;;;23.07;12.40;;;;;;;;;;5070963;28;20541;-73
2021/12/23 09:19:15;;;;;;;22.80;15.57;;;;;;;;;;5055505;28;20456;-73
2021/12/23 09:21:43;;;;;;;20.77;15.53;;;;;;;;;;5056992;28;20465;-72
2021/12/23 09:24:12;;;;;;;16.33;10.63;;;;;;;;;;5058058;28;20477;-72
2021/12/23 09:26:49;;;;;;;20.43;12.77;;;;;;;;;;5057163;28;20457;-72
2021/12/23 09:32:40;;;;;;;21.00;11.20;;;;;;;;;;5062859;28;20484;-72
2021/12/23 09:34:55;;;;;;;18.13;9.73;;;;;;;;;;5057832;28;20428;-72
2021/12/23 09:37:23;;;;;;;20.17;11.63;;;;;;;;;;5057041;28;20479;-74
2021/12/23 09:39:55;;;;;;;22.20;14.10;;;;;;;;;;5060547;28;20535;-71
2021/12/23 09:42:30;;;;;;;15.87;10.40;;;;;;;;;;5066267;28;20454;-72
2021/12/23 09:45:00;;;;;;;19.13;12.63;;;;;;;;;;5056858;28;20927;-73
2021/12/23 09:47:30;;;;;;;23.10;13.20;;;;;;;;;;5061432;28;20531;-73
2021/12/23 09:49:59;;;;;;;20.40;11.20;;;;;;;;;;5057257;28;20445;-73
2021/12/23 09:52:28;;;;;;;17.93;11.60;;;;;;;;;;5056822;28;20457;-73
2021/12/23 09:55:11;;;;;;;22.97;14.37;;;;;;;;;;5056550;28;20453;-72
2021/12/23 09:57:43;;;;;;;21.00;14.20;;;;;;;;;;5056059;28;20446;-73
2021/12/23 10:00:12;;;;;;;19.13;13.47;;;;;;;;;;5056343;28;20529;-71
2021/12/23 10:02:41;;;;;;;21.80;13.57;;;;;;;;;;5056056;28;20481;-72
2021/12/23 10:05:13;;;;;;;25.03;15.83;;;;;;;;;;5057067;28;20481;-71
2021/12/23 10:07:43;;;;;;;20.60;14.27;;;;;;;;;;5056353;28;20456;-73
2021/12/23 10:10:15;;;;;;;17.43;12.00;;;;;;;;;;5056055;28;20481;-73
2021/12/23 10:27:44;;;;;;;26.07;17.00;;;;;;;;;;5063499;28;20579;-73
2021/12/23 10:38:20;;;;;;;21.63;14.33;;;;;;;;;;5061002;28;20432;-72
2021/12/23 10:40:52;;;;;;;28.27;16.03;;;;;;;;;;5062474;28;20732;-73
2021/12/23 10:43:25;;;;;;;17.27;10.87;;;;;;;;;;5066026;28;20456;-73
2021/12/23 10:45:58;;;;;;;21.70;13.90;;;;;;;;;;5062281;28;20476;-71
2021/12/23 10:48:31;;;;;;;21.87;15.23;;;;;;;;;;5062172;28;20446;-72
2021/12/23 10:51:03;;;;;;;19.57;12.70;;;;;;;;;;5056908;28;20489;-73
2021/12/23 10:59:11;;;;;;;19.20;12.13;;;;;;;;;;5063004;28;20780;-73
2021/12/23 11:01:57;;;;;;;21.13;12.87;;;;;;;;;;5059492;28;20441;-74
2021/12/23 11:04:27;;;;;;;25.23;15.73;;;;;;;;;;5046771;28;20493;-73
2021/12/23 11:07:13;;;;;;;33.27;17.80;;;;;;;;;;5056739;28;20472;-73
2021/12/23 11:10:03;;;;;;;25.50;15.83;;;;;;;;;;5061376;28;20803;-72
2021/12/23 11:36:18;;;;;;;18.20;11.77;;;;;;;;;;5067708;28;20606;-73
2021/12/23 11:39:08;;;;;;;26.67;18.20;;;;;;;;;;5071522;28;20449;-72
2021/12/23 11:42:04;;;;;;;23.67;16.70;;;;;;;;;;5123577;27;20525;-72
2021/12/23 11:44:33;;;;;;;24.00;15.27;;;;;;;;;;5134392;27;20447;-72
2021/12/23 11:47:08;;;;;;;18.30;13.30;;;;;;;;;;5133345;28;20477;-72
2021/12/23 11:49:39;;;;;;;22.47;16.73;;;;;;;;;;5133740;27;20442;-72
2021/12/23 11:52:07;;;;;;;17.87;14.10;;;;;;;;;;5133327;28;20442;-71
2021/12/23 11:54:37;;;;;;;22.37;15.33;;;;;;;;;;5132567;27;20555;-73
2021/12/23 11:57:16;;;;;;;19.73;11.73;;;;;;;;;;5135607;27;20870;-72
2021/12/23 11:59:46;;;;;;;23.30;15.30;;;;;;;;;;5133081;27;20525;-72
2021/12/23 12:02:17;;;;;;;23.53;16.83;;;;;;;;;;5131873;28;20549;-73
2021/12/23 12:04:48;;;;;;;20.50;15.10;;;;;;;;;;5131500;27;20464;-72
2021/12/23 12:07:21;;;;;;;29.00;18.97;;;;;;;;;;5130329;28;20450;-73
2021/12/23 12:09:57;;;;;;;24.10;17.13;;;;;;;;;;5132796;27;20450;-73
2021/12/23 12:12:26;;;;;;;22.30;15.90;;;;;;;;;;5132624;27;20453;-71
2021/12/23 12:14:58;;;;;;;21.67;16.93;;;;;;;;;;5133501;27;20475;-71
2021/12/23 12:17:43;;;;;;;20.13;15.00;;;;;;;;;;5134046;27;20461;-73
2021/12/23 12:20:34;;;;;;;28.03;19.57;;;;;;;;;;5129926;27;20442;-71
2021/12/23 12:23:06;;;;;;;15.53;10.77;;;;;;;;;;5132513;27;20496;-70
2021/12/23 12:26:03;;;;;;;18.30;14.03;;;;;;;;;;5133790;27;20472;-72
2021/12/23 12:28:45;;;;;;;25.60;19.20;;;;;;;;;;5129822;28;20511;-72
2021/12/23 12:31:23;;;;;;;24.67;14.77;;;;;;;;;;5134410;28;20506;-71
2021/12/23 12:37:05;;;;;;;25.07;16.53;;;;;;;;;;5094982;28;20720;-72
2021/12/23 12:39:36;;;;;;;22.70;14.80;;;;;;;;;;5118187;28;20451;-72
2021/12/23 12:42:12;;;;;;;20.97;14.70;;;;;;;;;;5109666;28;20460;-74
2021/12/23 12:44:53;;;;;;;27.13;16.50;;;;;;;;;;5118490;27;20524;-73
2021/12/23 12:47:32;;;;;;;19.93;14.40;;;;;;;;;;5118984;28;20549;-74
2021/12/23 12:50:12;;;;;;;28.13;15.13;;;;;;;;;;5117937;28;20493;-73
2021/12/23 12:53:01;;;;;;;26.53;17.47;;;;;;;;;;5118518;28;20462;-72
2021/12/23 12:55:50;;;;;;;23.40;17.63;;;;;;;;;;5116236;28;20463;-73
2021/12/23 12:58:39;;;;;;;23.23;16.80;;;;;;;;;;5107426;28;20571;-74
2021/12/23 13:01:24;;;;;;;16.20;11.70;;;;;;;;;;5116629;28;20450;-72
2021/12/23 13:06:41;;;;;;;22.23;17.63;;;;;;;;;;5135021;27;20446;-72
2021/12/23 13:09:16;;;;;;;23.27;17.80;;;;;;;;;;5127634;27;20515;-72
2021/12/23 13:11:45;;;;;;;21.40;15.67;;;;;;;;;;5124929;27;20480;-72
2021/12/23 13:14:15;;;;;;;18.83;15.27;;;;;;;;;;5136741;27;20755;-73
2021/12/23 13:16:59;;;;;;;22.47;15.87;;;;;;;;;;5128380;27;20728;-72
2021/12/23 13:19:32;;;;;;;21.47;15.60;;;;;;;;;;5113810;27;20455;-71
2021/12/23 13:22:10;;;;;;;22.50;13.07;;;;;;;;;;5096713;28;20510;-73
2021/12/23 13:24:49;;;;;;;23.50;17.40;;;;;;;;;;5121268;27;20524;-73
2021/12/23 13:27:50;;;;;;;20.10;13.70;;;;;;;;;;5118527;27;20463;-74
2021/12/23 13:30:18;;;;;;;26.17;17.50;;;;;;;;;;5119082;27;20507;-74
2021/12/23 13:32:57;;;;;;;24.20;18.13;;;;;;;;;;5113480;28;20730;-71
2021/12/23 13:35:40;;;;;;;27.23;18.87;;;;;;;;;;5127829;27;20454;-74
2021/12/23 13:38:09;;;;;;;22.10;16.20;;;;;;;;;;5113524;28;20813;-72
2021/12/23 13:40:47;;;;;;;23.10;17.77;;;;;;;;;;5117136;28;20545;-72
2021/12/23 13:43:38;;;;;;;24.23;16.60;;;;;;;;;;5131877;27;20731;-73
2021/12/23 13:46:13;;;;;;;22.10;16.60;;;;;;;;;;5124596;27;20463;-72
2021/12/23 13:48:51;;;;;;;20.60;15.67;;;;;;;;;;5117420;28;20474;-72
2021/12/23 13:51:21;;;;;;;21.77;13.97;;;;;;;;;;5116616;28;20457;-72
2021/12/23 13:54:04;;;;;;;25.00;15.40;;;;;;;;;;5114877;28;20442;-71
2021/12/23 13:56:44;;;;;;;23.47;18.87;;;;;;;;;;5114186;28;20952;-72
2021/12/23 13:59:23;;;;;;;33.73;23.40;;;;;;;;;;5098440;28;21061;-73
2021/12/23 14:02:09;;;;;;;22.37;16.30;;;;;;;;;;5116673;28;20538;-72
2021/12/23 14:04:44;;;;;;;30.73;22.50;;;;;;;;;;5116237;28;20464;-74
2021/12/23 14:07:32;;;;;;;25.20;18.63;;;;;;;;;;5120852;27;20461;-71
2021/12/23 14:10:01;;;;;;;24.17;16.77;;;;;;;;;;5112771;28;20451;-73
2021/12/23 14:12:45;;;;;;;19.50;14.37;;;;;;;;;;5117188;27;20442;-71
2021/12/23 14:15:14;;;;;;;24.23;16.00;;;;;;;;;;5116637;28;20545;-72
2021/12/23 14:17:44;;;;;;;28.90;19.30;;;;;;;;;;5116042;28;20439;-73
2021/12/23 14:23:16;;;;;;;23.60;17.20;;;;;;;;;;5116701;28;20536;-71
2021/12/23 14:26:10;;;;;;;27.27;18.40;;;;;;;;;;5116914;28;20462;-72
2021/12/23 14:28:42;;;;;;;23.57;20.27;;;;;;;;;;5115710;28;20474;-71
2021/12/23 14:31:31;;;;;;;21.90;18.33;;;;;;;;;;5116187;28;20461;-71
2021/12/23 14:34:04;;;;;;;23.70;19.47;;;;;;;;;;5097103;28;20786;-71
2021/12/23 14:36:36;;;;;;;26.50;23.37;;;;;;;;;;5110617;28;20451;-71
2021/12/23 14:39:12;;;;;;;25.47;14.93;;;;;;;;;;5114358;28;20467;-71
2021/12/23 14:41:43;;;;;;;11.67;10.27;;;;;;;;;;5109150;28;20491;-70
2021/12/23 14:44:14;;;;;;;22.30;13.73;;;;;;;;;;5114568;28;20518;-72
2021/12/23 14:46:49;;;;;;;19.17;14.30;;;;;;;;;;5115359;28;20450;-72
2021/12/23 14:49:52;;;;;;;25.27;16.70;;;;;;;;;;5110735;28;20881;-70
2021/12/23 14:52:26;;;;;;;25.43;17.53;;;;;;;;;;5116463;27;20518;-71
2021/12/23 14:55:01;;;;;;;24.87;18.53;;;;;;;;;;5107406;28;20458;-73
2021/12/23 14:57:31;;;;;;;26.47;20.87;;;;;;;;;;5110542;28;20453;-72
2021/12/23 15:00:00;;;;;;;28.00;22.27;;;;;;;;;;5114180;28;20486;-72
2021/12/23 15:02:29;;;;;;;25.83;19.63;;;;;;;;;;5113170;27;20515;-72
2021/12/23 15:05:17;;;;;;;23.90;17.63;;;;;;;;;;5107255;28;20458;-72
2021/12/23 15:07:53;;;;;;;32.80;22.93;;;;;;;;;;5110112;28;20553;-71
2021/12/23 15:10:29;;;;;;;34.50;24.77;;;;;;;;;;5115124;28;20446;-72
2021/12/23 15:13:02;;;;;;;26.27;20.90;;;;;;;;;;5116176;28;20446;-72
2021/12/23 15:15:31;;;;;;;23.50;19.30;;;;;;;;;;5114176;28;20467;-72
2021/12/23 15:18:10;;;;;;;28.50;20.27;;;;;;;;;;5114273;28;20535;-72
2021/12/23 15:20:50;;;;;;;35.50;23.80;;;;;;;;;;5114095;28;20475;-72
2021/12/23 15:23:34;;;;;;;24.83;22.20;;;;;;;;;;5102766;28;20568;-71
2021/12/23 15:26:04;;;;;;;29.63;21.67;;;;;;;;;;5113682;28;20515;-72
2021/12/23 15:28:33;;;;;;;28.13;21.80;;;;;;;;;;5114321;28;20449;-72
2021/12/23 15:31:00;;;;;;;29.97;22.37;;;;;;;;;;5114302;28;20735;-72
2021/12/23 15:33:28;;;;;;;16.53;14.67;;;;;;;;;;5114295;28;20470;-71
2021/12/23 15:35:56;;;;;;;30.03;21.07;;;;;;;;;;5113975;28;20487;-72
2021/12/23 15:38:24;;;;;;;31.77;20.93;;;;;;;;;;5115390;28;20463;-72
2021/12/23 15:40:53;;;;;;;29.17;19.30;;;;;;;;;;5112176;28;20520;-72
2021/12/23 15:43:24;;;;;;;22.17;17.40;;;;;;;;;;5118200;28;20914;-72
2021/12/23 15:45:55;;;;;;;33.30;20.97;;;;;;;;;;5115803;28;20489;-72
2021/12/23 15:48:24;;;;;;;27.73;19.73;;;;;;;;;;5109022;28;20487;-72
2021/12/23 15:50:59;;;;;;;30.67;19.90;;;;;;;;;;5116952;28;20855;-72